Time;durP1;ratioP1;P1;durP2;ratioP2;P2;SDS_P1;SDS_P2;PMS_P1;PMS_P2;Temp;Humidity;BMP_temperature;BMP_pressure;BME280_temperature;BME280_humidity;BME280_pressure;Samples;Min_cycle;Max_cycle;Signal;HPM_P1;HPM_P2
2022/09/03 00:02:07;;;;;;;1999.90;925.30;;;15.30;94.10;;;;;;4145741;28;20188;-76
2022/09/03 00:04:45;;;;;;;1999.90;922.97;;;15.40;93.80;;;;;;4158067;28;20197;-76
2022/09/03 00:06:53;;;;;;;1999.90;999.90;;;15.40;93.40;;;;;;4159903;28;20269;-76
2022/09/03 00:09:04;;;;;;;1999.90;758.50;;;15.50;93.40;;;;;;4162186;28;20165;-75
2022/09/03 00:11:25;;;;;;;1999.90;643.23;;;15.50;93.50;;;;;;4153720;28;20181;-76
2022/09/03 00:13:32;;;;;;;1999.90;829.80;;;15.50;93.20;;;;;;4145402;28;20209;-76
2022/09/03 00:15:34;;;;;;;1999.90;790.13;;;15.50;93.30;;;;;;4146048;28;20696;-76
2022/09/03 00:17:41;;;;;;;1999.90;985.17;;;15.40;93.40;;;;;;4145968;28;20240;-75
2022/09/03 00:19:55;;;;;;;1999.90;609.40;;;15.50;93.00;;;;;;4145831;28;20216;-75
2022/09/03 00:22:01;;;;;;;1999.90;822.20;;;15.50;92.70;;;;;;4147580;28;20213;-75
2022/09/03 00:24:05;;;;;;;1999.90;999.90;;;15.60;91.60;;;;;;4147882;28;20280;-75
2022/09/03 00:26:11;;;;;;;1999.90;900.30;;;15.60;91.40;;;;;;4148246;28;20233;-75
2022/09/03 00:28:19;;;;;;;1999.90;806.73;;;15.60;91.50;;;;;;4148371;28;20196;-75
2022/09/03 00:30:22;;;;;;;1999.90;780.63;;;15.60;91.30;;;;;;4148378;28;20197;-74
2022/09/03 00:32:33;;;;;;;1999.90;913.37;;;15.70;91.60;;;;;;4148171;28;20197;-74
2022/09/03 00:34:39;;;;;;;1999.90;512.60;;;15.60;91.60;;;;;;4147515;28;20181;-74
2022/09/03 00:36:41;;;;;;;1999.90;763.77;;;15.50;92.40;;;;;;4148191;28;20667;-75
2022/09/03 00:38:42;;;;;;;1999.90;835.53;;;15.40;92.60;;;;;;4148012;28;20691;-74
2022/09/03 00:41:07;;;;;;;1999.90;882.37;;;15.40;92.70;;;;;;4148183;28;20284;-74
2022/09/03 00:43:20;;;;;;;1999.90;772.00;;;15.50;92.70;;;;;;4147745;28;20174;-75
2022/09/03 00:45:37;;;;;;;1999.90;806.57;;;15.70;92.50;;;;;;4148034;28;20209;-74
2022/09/03 00:48:02;;;;;;;1999.90;834.07;;;15.70;92.30;;;;;;4148126;28;20186;-74
2022/09/03 00:50:21;;;;;;;1999.90;629.83;;;15.70;92.70;;;;;;4148156;28;20166;-74
2022/09/03 00:52:38;;;;;;;1999.90;781.03;;;15.80;92.70;;;;;;4147823;28;20178;-76
2022/09/03 00:55:02;;;;;;;1999.90;895.83;;;16.00;92.40;;;;;;4147333;28;20173;-74
2022/09/03 00:57:32;;;;;;;1999.90;902.53;;;16.00;92.70;;;;;;4148181;28;20206;-74
2022/09/03 00:59:33;;;;;;;1999.90;634.30;;;16.00;93.20;;;;;;4145032;28;20201;-74
2022/09/03 01:02:05;;;;;;;1999.90;639.30;;;16.10;93.00;;;;;;4151038;28;20178;-74
2022/09/03 01:04:16;;;;;;;1999.90;891.90;;;16.10;93.20;;;;;;4149685;28;20564;-75
2022/09/03 01:06:22;;;;;;;1999.90;701.53;;;16.10;93.30;;;;;;4148466;28;20329;-75
2022/09/03 01:08:51;;;;;;;1999.90;900.93;;;16.20;93.40;;;;;;4148156;28;20188;-74
2022/09/03 01:11:29;;;;;;;1999.90;607.03;;;16.20;93.20;;;;;;4147936;28;20220;-74
2022/09/03 01:14:15;;;;;;;1999.90;825.77;;;16.30;93.30;;;;;;4147272;28;20514;-74
2022/09/03 01:16:45;;;;;;;1999.90;999.90;;;16.30;92.20;;;;;;4148831;28;20228;-75
2022/09/03 01:18:54;;;;;;;1999.90;999.90;;;16.20;91.80;;;;;;4146725;28;20268;-74
2022/09/03 01:20:55;;;;;;;1999.90;880.73;;;16.10;92.10;;;;;;4146267;28;20210;-74
2022/09/03 01:23:05;;;;;;;1999.90;896.87;;;16.10;92.30;;;;;;4147187;28;20178;-74
2022/09/03 01:25:37;;;;;;;1999.90;884.00;;;16.10;92.10;;;;;;4147695;28;20558;-74
2022/09/03 01:27:46;;;;;;;1999.90;660.27;;;16.10;92.30;;;;;;4147591;28;20180;-74
2022/09/03 01:30:02;;;;;;;1999.90;487.77;;;16.20;92.10;;;;;;4147547;28;20165;-74
2022/09/03 01:32:18;;;;;;;1999.90;999.90;;;16.20;92.00;;;;;;4147148;28;20276;-74
2022/09/03 01:35:04;;;;;;;1999.90;692.27;;;16.20;92.30;;;;;;4145350;28;20181;-74
2022/09/03 01:37:29;;;;;;;1999.90;646.53;;;16.20;92.00;;;;;;4145228;28;20696;-74
2022/09/03 01:39:51;;;;;;;1999.90;689.37;;;16.30;91.90;;;;;;4145344;28;20249;-75
2022/09/03 01:42:39;;;;;;;1999.90;811.70;;;16.30;92.00;;;;;;4145988;28;20193;-75
2022/09/03 01:45:11;;;;;;;1999.90;838.47;;;16.40;92.00;;;;;;4141486;28;20194;-75
2022/09/03 01:47:34;;;;;;;1999.90;869.67;;;16.40;92.40;;;;;;4147507;28;20158;-75
2022/09/03 01:49:43;;;;;;;1999.90;999.90;;;16.30;92.40;;;;;;4147304;28;20245;-75
2022/09/03 01:51:44;;;;;;;1999.90;509.60;;;16.30;92.60;;;;;;4147561;28;20181;-74
2022/09/03 01:53:56;;;;;;;1820.73;216.13;;;16.30;92.80;;;;;;4146471;28;20192;-74
2022/09/03 01:56:34;;;;;;;1999.90;999.90;;;16.30;93.00;;;;;;4147426;28;20243;-75
2022/09/03 01:59:06;;;;;;;1999.90;999.90;;;16.30;93.00;;;;;;4147194;28;20189;-74
2022/09/03 02:01:13;;;;;;;1999.90;738.83;;;16.30;93.40;;;;;;4149137;28;20170;-75
2022/09/03 02:03:15;;;;;;;1999.90;999.90;;;16.30;93.80;;;;;;4154431;28;20186;-75
2022/09/03 02:05:19;;;;;;;1999.90;838.17;;;16.20;93.90;;;;;;4146962;28;20190;-74
2022/09/03 02:07:20;;;;;;;1999.90;722.47;;;16.20;94.10;;;;;;4147157;28;20178;-74
2022/09/03 02:09:21;;;;;;;1999.90;999.90;;;16.20;93.90;;;;;;4146513;28;20183;-74
2022/09/03 02:11:21;;;;;;;1999.90;749.03;;;16.30;94.00;;;;;;4147135;28;20211;-75
2022/09/03 02:13:37;;;;;;;1999.90;500.57;;;16.20;94.20;;;;;;4146423;28;20619;-75
2022/09/03 02:15:41;;;;;;;1999.90;687.10;;;16.30;94.30;;;;;;4146382;28;20217;-74
2022/09/03 02:17:44;;;;;;;1999.90;421.37;;;16.20;95.00;;;;;;4146595;28;20178;-74
2022/09/03 02:19:44;;;;;;;1999.90;999.90;;;16.20;94.40;;;;;;4146897;28;20178;-74
2022/09/03 02:21:50;;;;;;;1999.90;999.90;;;16.20;94.40;;;;;;4145230;28;20695;-74
2022/09/03 02:23:51;;;;;;;1999.90;999.90;;;16.20;94.30;;;;;;4145845;28;20169;-74
2022/09/03 02:25:57;;;;;;;1999.90;736.93;;;16.20;94.90;;;;;;4147000;28;20288;-75
2022/09/03 02:28:07;;;;;;;1999.90;563.53;;;16.10;94.70;;;;;;4145962;28;20910;-74
2022/09/03 02:30:09;;;;;;;1999.90;807.87;;;16.10;95.00;;;;;;4145935;28;20725;-75
2022/09/03 02:32:10;;;;;;;1999.90;840.40;;;16.00;95.10;;;;;;4144930;28;20231;-74
2022/09/03 02:34:11;;;;;;;1999.90;670.10;;;16.10;95.00;;;;;;4145847;28;20189;-74
2022/09/03 02:36:15;;;;;;;1989.87;733.67;;;16.10;95.30;;;;;;4146353;28;20222;-74
2022/09/03 02:38:24;;;;;;;1999.90;999.90;;;16.10;95.50;;;;;;4150585;28;20216;-74
2022/09/03 02:40:24;;;;;;;1999.90;999.90;;;16.10;95.40;;;;;;4162617;28;20185;-74
2022/09/03 02:42:26;;;;;;;1999.90;549.03;;;16.10;95.10;;;;;;4162624;28;20560;-74
2022/09/03 02:44:32;;;;;;;1999.90;999.90;;;16.10;95.10;;;;;;4161088;28;20185;-74
2022/09/03 02:46:47;;;;;;;1999.90;737.27;;;16.10;95.00;;;;;;4161152;28;20220;-74
2022/09/03 02:48:48;;;;;;;1999.90;763.53;;;16.10;95.70;;;;;;4161421;28;20188;-74
2022/09/03 02:50:48;;;;;;;1999.90;999.90;;;16.00;95.80;;;;;;4162566;28;20181;-75
2022/09/03 02:52:50;;;;;;;1999.90;499.43;;;16.10;95.60;;;;;;4161819;28;20192;-74
2022/09/03 02:54:50;;;;;;;1999.90;394.47;;;16.10;95.70;;;;;;4161115;28;20676;-74
2022/09/03 02:56:51;;;;;;;1999.90;683.47;;;16.00;96.30;;;;;;4162448;28;20204;-74
2022/09/03 02:58:53;;;;;;;1999.90;999.90;;;15.90;96.60;;;;;;4162425;28;20215;-73
2022/09/03 03:00:54;;;;;;;1999.90;855.70;;;15.90;96.50;;;;;;4163199;28;20173;-73
2022/09/03 03:02:55;;;;;;;1999.90;999.90;;;15.90;96.90;;;;;;4163239;28;20177;-74
2022/09/03 03:04:55;;;;;;;1999.90;814.13;;;15.80;97.00;;;;;;4162769;28;20173;-73
2022/09/03 03:06:56;;;;;;;1999.90;451.90;;;15.80;96.90;;;;;;4162799;28;20339;-74
2022/09/03 03:08:57;;;;;;;1999.90;999.90;;;15.60;97.40;;;;;;4162467;28;20749;-74
2022/09/03 03:10:59;;;;;;;1999.90;769.80;;;15.70;97.30;;;;;;4162444;28;20265;-76
2022/09/03 03:13:00;;;;;;;1999.90;999.90;;;15.70;97.70;;;;;;4161764;28;20185;-73
2022/09/03 03:15:00;;;;;;;1999.90;765.83;;;15.70;97.90;;;;;;4162305;28;20240;-73
2022/09/03 03:17:01;;;;;;;1999.90;479.83;;;15.70;97.50;;;;;;4162386;28;20712;-74
2022/09/03 03:19:01;;;;;;;1999.90;999.90;;;15.70;97.80;;;;;;4162504;28;20275;-74
2022/09/03 03:21:04;;;;;;;1999.90;999.90;;;15.70;97.90;;;;;;4162165;28;20229;-74
2022/09/03 03:23:06;;;;;;;1999.90;831.20;;;15.80;97.70;;;;;;4161490;28;20188;-73
2022/09/03 03:25:08;;;;;;;1999.90;571.33;;;15.80;97.50;;;;;;4162228;28;20185;-73
2022/09/03 03:27:10;;;;;;;1999.90;632.27;;;15.70;97.40;;;;;;4162566;28;20660;-73
2022/09/03 03:29:16;;;;;;;1999.90;999.90;;;15.70;97.40;;;;;;4160932;28;20184;-74
2022/09/03 03:31:19;;;;;;;1999.90;999.90;;;15.70;97.60;;;;;;4162088;28;20229;-74
2022/09/03 03:33:21;;;;;;;1999.90;999.90;;;15.70;98.00;;;;;;4161610;28;20189;-73
2022/09/03 03:35:22;;;;;;;1999.90;575.27;;;15.80;97.50;;;;;;4162041;28;20215;-74
2022/09/03 03:37:22;;;;;;;1999.90;859.30;;;15.70;97.50;;;;;;4162176;28;20675;-73
2022/09/03 03:39:23;;;;;;;1999.90;295.03;;;15.70;98.00;;;;;;4162060;28;20173;-74
2022/09/03 03:41:30;;;;;;;1999.90;999.90;;;15.80;97.50;;;;;;4162242;28;20264;-74
2022/09/03 03:43:30;;;;;;;1999.90;999.90;;;15.70;97.90;;;;;;4161412;28;20180;-73
2022/09/03 03:45:31;;;;;;;1999.90;999.90;;;15.70;98.00;;;;;;4160913;28;20208;-73
2022/09/03 03:47:32;;;;;;;1999.90;223.20;;;15.70;98.20;;;;;;4161950;28;20189;-73
2022/09/03 03:49:33;;;;;;;1999.90;999.90;;;15.70;97.90;;;;;;4162160;28;20656;-74
2022/09/03 03:51:34;;;;;;;1999.90;999.90;;;15.70;98.20;;;;;;4160771;28;20185;-73
2022/09/03 03:53:37;;;;;;;1999.90;811.10;;;15.60;98.10;;;;;;4161361;28;20181;-73
2022/09/03 03:55:38;;;;;;;1999.90;526.70;;;15.70;98.50;;;;;;4161029;28;20271;-73
2022/09/03 03:57:39;;;;;;;1999.90;621.17;;;15.70;98.30;;;;;;4163777;28;20181;-73
2022/09/03 03:59:39;;;;;;;1999.90;763.73;;;15.70;98.30;;;;;;4150920;28;20182;-73
2022/09/03 04:01:40;;;;;;;1999.90;797.37;;;15.60;98.70;;;;;;4148743;28;20174;-73
2022/09/03 04:03:41;;;;;;;1999.90;999.90;;;15.50;98.50;;;;;;4148025;28;20178;-73
2022/09/03 04:05:42;;;;;;;1999.90;999.90;;;15.60;98.90;;;;;;4148495;28;20211;-73
2022/09/03 04:07:43;;;;;;;1810.57;700.27;;;15.60;98.40;;;;;;4148658;28;20264;-73
2022/09/03 04:09:44;;;;;;;1999.90;999.90;;;15.70;98.10;;;;;;4147296;28;20610;-73
2022/09/03 04:11:44;;;;;;;1999.90;798.10;;;15.60;98.10;;;;;;4148821;28;20194;-73
2022/09/03 04:13:46;;;;;;;1999.90;376.17;;;15.60;97.80;;;;;;4147874;28;20259;-73
2022/09/03 04:15:47;;;;;;;1709.07;696.53;;;15.50;97.80;;;;;;4148460;28;20213;-73
2022/09/03 04:17:47;;;;;;;1999.90;528.90;;;15.60;97.90;;;;;;4148859;28;20217;-73
2022/09/03 04:19:48;;;;;;;1999.90;460.97;;;15.60;97.80;;;;;;4148469;28;20182;-73
2022/09/03 04:21:49;;;;;;;1999.90;999.90;;;15.60;97.30;;;;;;4148737;28;20623;-74
2022/09/03 04:23:50;;;;;;;1999.90;838.30;;;15.50;97.10;;;;;;4146447;28;20188;-74
2022/09/03 04:25:51;;;;;;;1999.90;999.90;;;15.50;97.70;;;;;;4149131;28;20205;-74
2022/09/03 04:27:52;;;;;;;1999.90;999.90;;;15.60;97.70;;;;;;4147237;28;20192;-75
2022/09/03 04:29:53;;;;;;;1999.90;591.80;;;15.50;97.90;;;;;;4148388;28;20217;-74
2022/09/03 04:34:13;;;;;;;1999.90;746.17;;;15.50;98.00;;;;;;4147758;28;20273;-73
2022/09/03 04:36:19;;;;;;;1999.90;834.93;;;15.50;97.60;;;;;;4148161;28;20769;-74
2022/09/03 04:38:19;;;;;;;1999.90;612.07;;;15.50;97.40;;;;;;4148606;28;20230;-74
2022/09/03 04:40:20;;;;;;;1999.90;572.63;;;15.50;97.60;;;;;;4148141;28;20182;-74
2022/09/03 04:42:20;;;;;;;1999.90;330.97;;;15.50;97.80;;;;;;4148287;28;20563;-72
2022/09/03 04:44:21;;;;;;;1999.90;690.47;;;15.70;96.80;;;;;;4146176;28;20285;-72
2022/09/03 04:46:24;;;;;;;1999.90;693.70;;;15.70;96.40;;;;;;4147975;28;20201;-72
2022/09/03 04:48:27;;;;;;;1999.90;999.90;;;15.60;96.70;;;;;;4148179;28;20186;-73
2022/09/03 04:50:29;;;;;;;1999.90;522.67;;;15.60;97.60;;;;;;4148106;28;20185;-72
2022/09/03 04:52:30;;;;;;;1999.90;600.30;;;15.50;97.50;;;;;;4147677;28;20272;-72
2022/09/03 04:54:31;;;;;;;1999.90;802.37;;;15.50;97.50;;;;;;4157985;28;20254;-72
2022/09/03 04:56:33;;;;;;;1999.90;741.03;;;15.40;98.20;;;;;;4163672;28;20221;-72
2022/09/03 04:58:34;;;;;;;1999.90;499.23;;;15.40;98.80;;;;;;4163976;28;20824;-73
2022/09/03 05:00:37;;;;;;;1999.90;240.37;;;15.40;99.60;;;;;;4164136;28;20177;-72
2022/09/03 05:02:37;;;;;;;1999.90;331.47;;;15.40;99.90;;;;;;4163999;28;20177;-72
2022/09/03 05:04:38;;;;;;;1964.77;186.83;;;15.40;99.40;;;;;;4163705;28;20185;-72
2022/09/03 05:06:39;;;;;;;1999.90;316.87;;;15.40;99.90;;;;;;4163998;28;20208;-72
2022/09/03 05:08:39;;;;;;;1999.90;532.50;;;15.20;99.90;;;;;;4162922;28;20667;-72
2022/09/03 05:10:40;;;;;;;1999.90;500.57;;;15.10;99.90;;;;;;4163979;28;20209;-72
2022/09/03 05:12:41;;;;;;;1999.90;617.33;;;15.10;99.90;;;;;;4163883;28;20173;-72
2022/09/03 05:14:42;;;;;;;1999.90;723.43;;;15.00;99.90;;;;;;4163390;28;20224;-71
2022/09/03 05:16:42;;;;;;;1999.90;788.13;;;15.10;99.90;;;;;;4162730;28;20711;-71
2022/09/03 05:18:44;;;;;;;1999.90;766.77;;;14.90;99.90;;;;;;4163875;28;20641;-72
2022/09/03 05:20:44;;;;;;;1999.90;566.30;;;15.00;99.90;;;;;;4163969;28;20792;-72
2022/09/03 05:22:45;;;;;;;1999.90;848.53;;;14.90;99.90;;;;;;4163777;28;20177;-72
2022/09/03 05:24:47;;;;;;;1999.90;508.00;;;14.80;99.90;;;;;;4163713;28;20177;-72
2022/09/03 05:26:47;;;;;;;1999.90;572.40;;;14.80;99.90;;;;;;4163826;28;20288;-72
2022/09/03 05:29:01;;;;;;;1999.90;349.47;;;14.70;99.90;;;;;;4163966;28;20185;-73
2022/09/03 05:31:07;;;;;;;1999.90;999.90;;;14.70;99.90;;;;;;4163687;28;20193;-73
2022/09/03 05:33:08;;;;;;;1999.90;525.43;;;14.70;99.90;;;;;;4163313;28;20165;-73
2022/09/03 05:35:09;;;;;;;1999.90;773.13;;;14.50;99.90;;;;;;4165438;28;20251;-73
2022/09/03 05:37:11;;;;;;;1999.90;776.77;;;14.50;99.90;;;;;;4166019;28;20173;-73
2022/09/03 05:39:11;;;;;;;1999.90;999.90;;;14.50;99.90;;;;;;4165582;28;20234;-72
2022/09/03 05:41:14;;;;;;;1999.90;779.13;;;14.70;99.90;;;;;;4165157;28;20177;-73
2022/09/03 05:43:16;;;;;;;1999.90;999.90;;;14.70;99.90;;;;;;4163618;28;20549;-73
2022/09/03 05:45:16;;;;;;;1999.90;386.40;;;14.80;99.90;;;;;;4162684;28;20275;-73
2022/09/03 05:47:17;;;;;;;1999.90;408.37;;;14.80;99.90;;;;;;4164075;28;20644;-74
2022/09/03 05:49:18;;;;;;;1999.90;518.27;;;14.80;99.90;;;;;;4164295;28;20189;-73
2022/09/03 05:51:18;;;;;;;1999.90;326.83;;;14.70;99.90;;;;;;4164082;28;20252;-73
2022/09/03 05:53:19;;;;;;;1999.90;544.03;;;14.80;99.90;;;;;;4163282;28;20249;-73
2022/09/03 05:55:20;;;;;;;1999.90;999.90;;;14.80;99.90;;;;;;4163715;28;20738;-73
2022/09/03 05:57:21;;;;;;;1999.90;586.53;;;14.70;99.90;;;;;;4164006;28;20193;-73
2022/09/03 05:59:21;;;;;;;1999.90;733.93;;;14.60;99.90;;;;;;4163906;28;20180;-72
2022/09/03 06:01:28;;;;;;;1999.90;999.90;;;14.60;99.90;;;;;;4163725;28;20244;-71
2022/09/03 06:03:29;;;;;;;1999.90;681.10;;;14.50;99.90;;;;;;4163655;28;20212;-73
2022/09/03 06:05:29;;;;;;;1999.90;646.63;;;14.30;99.90;;;;;;4152394;28;20241;-72
2022/09/03 06:07:31;;;;;;;1999.90;669.33;;;14.30;99.90;;;;;;4149695;28;20284;-72
2022/09/03 06:09:31;;;;;;;1999.90;503.53;;;14.40;99.90;;;;;;4149736;28;20190;-73
2022/09/03 06:11:34;;;;;;;1999.90;876.87;;;14.50;99.90;;;;;;4148245;28;20190;-72
2022/09/03 06:13:35;;;;;;;1999.90;372.83;;;14.40;99.90;;;;;;4149050;28;20188;-72
2022/09/03 06:15:36;;;;;;;1999.90;606.30;;;14.30;99.90;;;;;;4148997;28;20278;-73
2022/09/03 06:17:37;;;;;;;1999.90;564.80;;;14.30;99.90;;;;;;4146501;28;20306;-73
2022/09/03 06:19:38;;;;;;;1999.90;593.63;;;14.30;99.90;;;;;;4146202;28;20659;-72
2022/09/03 06:21:43;;;;;;;1999.90;466.93;;;14.30;99.90;;;;;;4146524;28;20328;-73
2022/09/03 06:23:51;;;;;;;1999.90;446.00;;;14.40;99.90;;;;;;4145791;28;20188;-72
2022/09/03 06:26:03;;;;;;;1999.90;418.70;;;14.50;99.90;;;;;;4146533;28;20219;-72
2022/09/03 06:28:07;;;;;;;1999.90;999.90;;;14.60;99.90;;;;;;4146505;28;20174;-72
2022/09/03 06:30:08;;;;;;;1999.90;744.57;;;14.70;99.90;;;;;;4146402;28;20820;-72
2022/09/03 06:32:09;;;;;;;1667.60;696.43;;;14.80;99.90;;;;;;4146178;28;20194;-72
2022/09/03 06:34:09;;;;;;;1999.90;999.90;;;15.00;99.90;;;;;;4145705;28;20185;-72
2022/09/03 06:36:12;;;;;;;1999.90;494.17;;;15.10;99.90;;;;;;4146147;28;20213;-72
2022/09/03 06:38:13;;;;;;;1999.90;766.10;;;15.10;99.90;;;;;;4146080;28;20192;-72
2022/09/03 06:40:19;;;;;;;1999.90;999.90;;;15.20;99.90;;;;;;4146269;28;20182;-73
2022/09/03 06:42:23;;;;;;;1999.90;549.00;;;15.10;99.90;;;;;;4146257;28;20173;-73
2022/09/03 06:44:23;;;;;;;1999.90;655.13;;;15.20;99.90;;;;;;4145461;28;20174;-72
2022/09/03 06:46:24;;;;;;;1999.90;809.37;;;15.40;99.90;;;;;;4146047;28;20634;-72
2022/09/03 06:48:25;;;;;;;1999.90;719.90;;;15.40;99.90;;;;;;4146207;28;20188;-72
2022/09/03 06:50:26;;;;;;;1999.90;999.90;;;15.40;99.90;;;;;;4146093;28;20605;-73
2022/09/03 06:52:27;;;;;;;1999.90;730.10;;;15.50;99.90;;;;;;4146078;28;20182;-72
2022/09/03 06:54:28;;;;;;;1999.90;612.07;;;15.40;99.90;;;;;;4145434;28;20188;-72
2022/09/03 06:56:29;;;;;;;1999.90;703.70;;;15.40;99.90;;;;;;4145941;28;20245;-72
2022/09/03 06:58:39;;;;;;;1999.90;773.10;;;15.30;99.90;;;;;;4145960;28;20259;-72
2022/09/03 07:00:39;;;;;;;1999.90;999.90;;;15.20;99.90;;;;;;4146050;28;20181;-73
2022/09/03 07:02:40;;;;;;;1999.90;674.87;;;15.20;99.90;;;;;;4146206;28;20178;-73
2022/09/03 07:04:41;;;;;;;1999.90;537.53;;;15.30;99.90;;;;;;4145455;28;20256;-73
2022/09/03 07:06:43;;;;;;;1999.90;841.03;;;15.20;99.90;;;;;;4146052;28;20202;-72
2022/09/03 07:08:45;;;;;;;1999.90;395.93;;;15.20;99.90;;;;;;4145972;28;20181;-73
2022/09/03 07:10:46;;;;;;;1999.90;999.90;;;15.10;99.90;;;;;;4146087;28;20185;-73
2022/09/03 07:12:46;;;;;;;1999.90;713.67;;;15.10;99.90;;;;;;4145323;28;20236;-72
2022/09/03 07:14:47;;;;;;;1999.90;640.73;;;15.30;99.90;;;;;;4145805;28;20271;-73
2022/09/03 07:16:49;;;;;;;1999.90;691.20;;;15.20;99.90;;;;;;4145829;28;20255;-73
2022/09/03 07:18:50;;;;;;;1999.90;725.57;;;15.10;99.90;;;;;;4145928;28;20185;-73
2022/09/03 07:20:50;;;;;;;1999.90;749.30;;;15.00;99.90;;;;;;4145876;28;20696;-73
2022/09/03 07:22:55;;;;;;;1999.90;438.83;;;15.10;99.90;;;;;;4145214;28;20174;-73
2022/09/03 07:24:55;;;;;;;1999.90;576.80;;;15.10;99.90;;;;;;4145847;28;20178;-73
2022/09/03 07:26:56;;;;;;;1999.90;898.10;;;15.10;99.90;;;;;;4145834;28;20209;-73
2022/09/03 07:28:59;;;;;;;1999.90;999.90;;;15.30;99.90;;;;;;4146124;28;20216;-72
2022/09/03 07:31:03;;;;;;;1999.90;822.90;;;15.60;99.90;;;;;;4146566;28;20216;-73
2022/09/03 07:33:06;;;;;;;1999.90;769.13;;;15.70;99.90;;;;;;4148671;28;20177;-73
2022/09/03 07:35:07;;;;;;;1999.90;855.97;;;15.70;99.90;;;;;;4148977;28;20209;-73
2022/09/03 07:37:08;;;;;;;1999.90;374.17;;;15.70;99.90;;;;;;4149280;28;20197;-73
2022/09/03 07:39:10;;;;;;;1999.90;816.53;;;15.80;99.90;;;;;;4149018;28;20296;-73
2022/09/03 07:41:12;;;;;;;1999.90;346.40;;;15.90;99.90;;;;;;4148864;28;20185;-73
2022/09/03 07:43:13;;;;;;;1999.90;999.90;;;16.10;99.90;;;;;;4148176;28;20173;-73
2022/09/03 07:45:14;;;;;;;1999.90;751.87;;;16.20;99.90;;;;;;4148530;28;20192;-72
2022/09/03 07:47:17;;;;;;;1999.90;514.30;;;16.20;99.90;;;;;;4149087;28;20181;-72
2022/09/03 07:49:20;;;;;;;1999.90;999.90;;;16.40;99.90;;;;;;4148727;28;20897;-72
2022/09/03 07:51:25;;;;;;;1999.90;513.03;;;16.50;99.90;;;;;;4148760;28;20243;-73
2022/09/03 07:53:27;;;;;;;1999.90;652.83;;;16.80;98.90;;;;;;4148037;28;20177;-72
2022/09/03 07:55:28;;;;;;;1999.90;999.90;;;16.90;98.60;;;;;;4148684;28;20201;-72
2022/09/03 07:57:28;;;;;;;1999.90;509.50;;;17.10;99.10;;;;;;4148613;28;20291;-72
2022/09/03 07:59:30;;;;;;;1999.90;680.80;;;17.20;97.80;;;;;;4157458;28;20604;-73
2022/09/03 08:01:32;;;;;;;1999.90;999.90;;;17.50;97.10;;;;;;4163555;28;20185;-72
2022/09/03 08:03:34;;;;;;;1999.90;635.70;;;17.60;96.40;;;;;;4164244;28;20177;-72
2022/09/03 08:05:36;;;;;;;1999.90;401.27;;;17.80;95.70;;;;;;4165002;28;20201;-73
2022/09/03 08:07:36;;;;;;;1999.90;999.90;;;18.20;95.30;;;;;;4163611;28;20666;-72
2022/09/03 08:09:37;;;;;;;1999.90;709.67;;;18.40;95.10;;;;;;4164645;28;20192;-73
2022/09/03 08:11:42;;;;;;;1999.90;879.87;;;18.70;94.10;;;;;;4150907;28;20668;-73
2022/09/03 08:13:47;;;;;;;1999.90;999.90;;;18.80;91.70;;;;;;4146574;28;20566;-73
2022/09/03 08:15:55;;;;;;;1999.90;527.40;;;18.70;91.60;;;;;;4148736;28;20221;-72
2022/09/03 08:17:56;;;;;;;1999.90;393.17;;;18.70;91.70;;;;;;4148211;28;20176;-73
2022/09/03 08:19:57;;;;;;;1999.90;491.87;;;18.90;91.60;;;;;;4149637;28;20178;-73
2022/09/03 08:21:59;;;;;;;1999.90;872.77;;;19.30;92.30;;;;;;4164311;28;20594;-73
2022/09/03 08:24:03;;;;;;;1999.90;721.57;;;19.70;90.50;;;;;;4148563;28;20216;-73
2022/09/03 08:26:05;;;;;;;1999.90;864.00;;;19.70;78.30;;;;;;4148515;28;20197;-73
2022/09/03 08:28:05;;;;;;;1999.90;566.70;;;19.70;77.10;;;;;;4148466;28;20209;-73
2022/09/03 08:30:10;;;;;;;1999.90;539.50;;;20.10;75.40;;;;;;4149297;28;20189;-72
2022/09/03 08:32:11;;;;;;;1999.90;669.03;;;20.30;74.10;;;;;;4149054;28;20608;-73
2022/09/03 08:34:13;;;;;;;1999.90;622.33;;;20.30;70.80;;;;;;4149271;28;20193;-73
2022/09/03 08:36:17;;;;;;;1999.90;999.90;;;20.20;70.90;;;;;;4149331;28;20213;-72
2022/09/03 08:38:18;;;;;;;1999.90;835.13;;;20.30;70.60;;;;;;4148280;28;20174;-73
2022/09/03 08:40:23;;;;;;;1999.90;790.50;;;20.30;67.20;;;;;;4149118;28;20259;-73
2022/09/03 08:43:07;;;;;;;1999.90;731.23;;;20.20;67.70;;;;;;4149066;28;20190;-73
2022/09/03 08:45:15;;;;;;;1999.90;813.60;;;20.50;66.80;;;;;;4143963;28;20574;-73
2022/09/03 08:47:29;;;;;;;1999.90;812.33;;;20.40;67.80;;;;;;4148008;28;20208;-73
2022/09/03 08:49:56;;;;;;;1999.90;527.73;;;20.40;66.10;;;;;;4131814;28;20178;-73
2022/09/03 08:52:02;;;;;;;1999.90;803.63;;;20.30;66.60;;;;;;4149032;28;20641;-73
2022/09/03 08:54:04;;;;;;;1999.90;892.50;;;20.10;67.40;;;;;;4147111;28;20198;-73
2022/09/03 08:56:13;;;;;;;1999.90;725.47;;;19.80;68.60;;;;;;4147951;28;20660;-72
2022/09/03 08:58:20;;;;;;;1999.90;776.03;;;19.90;69.30;;;;;;4147787;28;20264;-72
2022/09/03 09:00:21;;;;;;;1999.90;938.60;;;20.20;68.10;;;;;;4148019;28;20221;-72
2022/09/03 09:02:34;;;;;;;1999.90;593.67;;;20.40;66.70;;;;;;4148444;28;20605;-72
2022/09/03 09:05:04;;;;;;;1999.90;976.93;;;20.80;67.70;;;;;;4147593;28;20172;-72
2022/09/03 09:07:44;;;;;;;1999.90;777.83;;;21.10;66.10;;;;;;4147868;28;20214;-72
2022/09/03 09:10:02;;;;;;;1999.90;917.27;;;21.20;64.00;;;;;;4150888;28;20188;-70
2022/09/03 09:12:38;;;;;;;1999.90;643.73;;;21.30;63.20;;;;;;4179845;28;20169;-71
2022/09/03 09:15:11;;;;;;;1999.90;756.33;;;21.60;63.20;;;;;;4179065;28;20241;-70
2022/09/03 09:17:31;;;;;;;1999.90;999.90;;;21.60;61.40;;;;;;4172356;28;20247;-71
2022/09/03 09:20:20;;;;;;;1999.90;534.93;;;21.70;60.20;;;;;;4183000;28;20180;-67
2022/09/03 09:22:37;;;;;;;1999.90;523.70;;;21.10;62.90;;;;;;4154680;28;20172;-69
2022/09/03 09:24:43;;;;;;;1999.90;599.03;;;20.80;63.90;;;;;;4190956;28;20255;-67
2022/09/03 09:26:44;;;;;;;1999.90;576.87;;;20.80;66.20;;;;;;4170156;28;20373;-68
2022/09/03 09:29:02;;;;;;;1999.90;778.03;;;20.80;64.70;;;;;;4175162;28;20192;-68
2022/09/03 09:31:06;;;;;;;1999.90;760.07;;;20.70;65.00;;;;;;4188999;28;20203;-69
2022/09/03 09:33:07;;;;;;;1999.90;534.93;;;20.40;66.10;;;;;;4170414;28;20189;-68
2022/09/03 09:35:09;;;;;;;1999.90;596.13;;;20.10;67.70;;;;;;4174260;28;20216;-67
2022/09/03 09:37:13;;;;;;;1999.90;703.47;;;19.80;69.50;;;;;;4172379;28;20611;-67
2022/09/03 09:39:17;;;;;;;1999.90;336.20;;;19.60;71.60;;;;;;4176141;28;20203;-68
2022/09/03 09:41:22;;;;;;;1999.90;588.77;;;19.60;71.20;;;;;;4185942;28;20658;-68
2022/09/03 09:43:23;;;;;;;1999.90;922.93;;;19.60;71.20;;;;;;4191565;28;20245;-68
2022/09/03 09:45:24;;;;;;;1999.90;825.90;;;19.60;71.20;;;;;;4169699;28;20870;-69
2022/09/03 09:47:30;;;;;;;1999.90;895.80;;;19.40;73.10;;;;;;4165656;28;20587;-68
2022/09/03 09:49:44;;;;;;;1999.90;803.87;;;19.00;78.40;;;;;;4162442;28;20658;-68
2022/09/03 09:51:45;;;;;;;1999.90;635.10;;;18.40;83.80;;;;;;4178533;28;20260;-68
2022/09/03 09:53:46;;;;;;;1999.90;870.73;;;17.60;90.60;;;;;;4165311;28;20675;-70
2022/09/03 09:55:51;;;;;;;1999.90;736.20;;;17.20;92.50;;;;;;4178872;28;20227;-70
2022/09/03 09:58:05;;;;;;;1999.90;680.27;;;16.90;95.20;;;;;;4165440;28;20228;-70
2022/09/03 10:00:12;;;;;;;1999.90;834.07;;;16.80;98.00;;;;;;4166467;28;20181;-69
2022/09/03 10:02:14;;;;;;;1999.90;522.90;;;16.60;99.30;;;;;;4179490;28;20179;-69
2022/09/03 10:04:29;;;;;;;1999.90;751.13;;;16.60;99.90;;;;;;4164617;28;20658;-68
2022/09/03 10:08:50;;;;;;;1999.90;398.40;;;16.50;99.90;;;;;;4181270;28;20191;-68
2022/09/03 10:10:51;;;;;;;1999.90;415.13;;;16.50;99.90;;;;;;4173553;28;20264;-68
2022/09/03 10:13:04;;;;;;;1999.90;514.80;;;16.50;99.90;;;;;;4170631;28;20184;-70
2022/09/03 10:15:24;;;;;;;1999.90;398.83;;;16.60;99.90;;;;;;4171504;28;20192;-69
2022/09/03 10:17:31;;;;;;;1999.90;408.87;;;16.80;99.90;;;;;;4176008;28;20191;-69
2022/09/03 10:20:26;;;;;;;1999.90;546.53;;;16.60;99.90;;;;;;4167640;28;20177;-69
2022/09/03 10:22:18;;;;;;;1999.90;858.83;;;16.50;99.90;;;;;;4165296;28;20246;-70